createdAt,value
2023-03-18T00:02:53.122Z,6.09
2023-03-18T00:06:14.095Z,6.13
2023-03-18T00:09:19.410Z,5.99
2023-03-18T00:12:25.490Z,6.08
2023-03-18T00:15:31.128Z,5.91
2023-03-18T00:18:36.333Z,5.92
2023-03-18T00:21:41.765Z,5.88
2023-03-18T00:24:49.251Z,5.77
2023-03-18T00:27:54.559Z,5.65
2023-03-18T00:31:09.325Z,5.88
2023-03-18T00:34:15.056Z,5.87
2023-03-18T00:37:30.836Z,5.90
2023-03-18T00:40:43.542Z,5.83
2023-03-18T00:43:53.078Z,5.73
2023-03-18T00:46:58.676Z,5.74
2023-03-18T00:50:08.899Z,5.49
2023-03-18T00:53:14.751Z,5.46
2023-03-18T00:56:22.485Z,5.30
2023-03-18T00:59:28.025Z,5.42
2023-03-18T01:02:34.890Z,5.49
2023-03-18T01:05:40.629Z,5.22
2023-03-18T01:08:46.399Z,5.36
2023-03-18T01:11:52.053Z,5.19
2023-03-18T01:14:58.378Z,5.34
2023-03-18T01:18:04.242Z,5.33
2023-03-18T01:21:11.055Z,5.31
2023-03-18T01:24:23.806Z,4.91
2023-03-18T01:27:30.048Z,4.31
2023-03-18T01:30:38.483Z,4.50
2023-03-18T01:33:44.339Z,4.73
2023-03-18T01:36:49.994Z,5.03
2023-03-18T01:39:58.610Z,5.31
2023-03-18T01:43:26.659Z,5.19
2023-03-18T01:46:45.376Z,5.31
2023-03-18T01:49:52.624Z,5.39
2023-03-18T01:53:03.065Z,5.32
2023-03-18T01:56:09.372Z,5.19
2023-03-18T01:59:16.402Z,5.07
2023-03-18T02:02:22.378Z,4.67
2023-03-18T02:05:29.895Z,4.91
2023-03-18T02:08:38.302Z,5.18
2023-03-18T02:11:50.367Z,5.07
2023-03-18T02:14:59.057Z,5.12
2023-03-18T02:18:08.497Z,5.25
2023-03-18T02:21:21.306Z,5.04
2023-03-18T02:24:47.945Z,5.07
2023-03-18T02:28:01.380Z,5.32
2023-03-18T02:31:13.018Z,5.15
2023-03-18T02:34:20.144Z,5.10
2023-03-18T02:37:26.463Z,5.12
2023-03-18T02:40:36.933Z,4.86
2023-03-18T02:43:49.677Z,4.82
2023-03-18T02:46:59.637Z,4.89
2023-03-18T02:50:06.683Z,4.85
2023-03-18T02:53:15.540Z,4.79
2023-03-18T02:56:21.941Z,4.73
2023-03-18T02:59:27.883Z,4.72
2023-03-18T03:02:36.577Z,4.87
2023-03-18T03:05:42.621Z,4.70
2023-03-18T03:08:48.990Z,4.66
2023-03-18T03:11:54.783Z,4.48
2023-03-18T03:15:02.786Z,4.75
2023-03-18T03:18:10.691Z,4.73
2023-03-18T03:21:17.377Z,4.48
2023-03-18T03:24:23.093Z,4.56
2023-03-18T03:27:29.601Z,4.56
2023-03-18T03:30:37.076Z,4.46
2023-03-18T03:33:43.983Z,4.65
2023-03-18T03:36:50.132Z,4.67
2023-03-18T03:39:56.107Z,4.53
2023-03-18T03:43:02.211Z,4.54
2023-03-18T03:46:09.767Z,4.56
2023-03-18T03:49:16.059Z,4.58
2023-03-18T03:52:21.763Z,4.53
2023-03-18T03:55:29.412Z,4.17
2023-03-18T03:58:35.276Z,4.24
2023-03-18T04:01:41.793Z,4.20
2023-03-18T04:04:47.624Z,4.35
2023-03-18T04:08:03.009Z,4.41
2023-03-18T04:11:16.358Z,4.36
2023-03-18T04:14:21.807Z,4.37
2023-03-18T04:17:27.665Z,4.38
2023-03-18T04:20:35.224Z,4.37
2023-03-18T04:23:43.673Z,4.33
2023-03-18T04:26:50.522Z,4.39
2023-03-18T04:29:56.405Z,4.20
2023-03-18T04:33:10.472Z,4.02
2023-03-18T04:36:18.640Z,4.19
2023-03-18T04:39:25.384Z,4.25
2023-03-18T04:42:31.321Z,4.03
2023-03-18T04:45:38.204Z,4.04
2023-03-18T04:48:44.088Z,4.21
2023-03-18T04:51:49.739Z,4.20
2023-03-18T04:55:07.098Z,4.09
2023-03-18T04:58:15.717Z,4.12
2023-03-18T05:01:31.822Z,3.91
2023-03-18T05:04:37.889Z,4.06
2023-03-18T05:07:44.655Z,4.12
2023-03-18T05:10:53.811Z,4.20
2023-03-18T05:13:59.438Z,3.99
2023-03-18T05:17:06.386Z,4.02
2023-03-18T05:20:15.589Z,4.06
2023-03-18T05:23:24.261Z,3.87
2023-03-18T05:26:32.793Z,3.83
2023-03-18T05:29:40.668Z,4.03
2023-03-18T05:32:54.179Z,4.08
2023-03-18T05:36:12.209Z,4.19
2023-03-18T05:39:29.160Z,4.07
2023-03-18T05:42:38.621Z,4.10
2023-03-18T05:45:52.230Z,4.11
2023-03-18T05:49:02.924Z,4.08
2023-03-18T05:52:23.221Z,4.09
2023-03-18T05:55:32.507Z,4.25
2023-03-18T05:58:38.710Z,4.29
2023-03-18T06:01:57.846Z,4.50
2023-03-18T06:05:04.259Z,4.43
2023-03-18T06:08:10.047Z,4.31
2023-03-18T06:11:17.356Z,4.49
2023-03-18T06:14:22.870Z,4.22
2023-03-18T06:17:29.470Z,4.29
2023-03-18T06:20:34.811Z,4.44
2023-03-18T06:23:40.257Z,4.48
2023-03-18T06:26:45.878Z,4.68
2023-03-18T06:29:51.681Z,4.63
2023-03-18T06:32:57.704Z,4.71
2023-03-18T06:36:06.629Z,4.80
2023-03-18T06:39:12.606Z,4.99
2023-03-18T06:42:18.330Z,4.87
2023-03-18T06:45:33.175Z,5.06
2023-03-18T06:48:44.908Z,5.04
2023-03-18T06:51:54.698Z,4.83
2023-03-18T06:55:00.777Z,5.06
2023-03-18T06:58:06.738Z,5.04
2023-03-18T07:01:41.910Z,5.30
2023-03-18T07:04:48.419Z,5.13
2023-03-18T07:07:54.905Z,5.12
2023-03-18T07:11:01.171Z,5.18
2023-03-18T07:14:09.027Z,5.26
2023-03-18T07:17:15.014Z,5.16
2023-03-18T07:20:22.830Z,5.56
2023-03-18T07:23:29.146Z,5.73
2023-03-18T07:26:35.925Z,5.80
2023-03-18T07:29:42.074Z,5.98
2023-03-18T07:32:47.814Z,6.09
2023-03-18T07:35:53.667Z,6.14
2023-03-18T07:39:00.286Z,6.26
2023-03-18T07:42:06.714Z,6.52
2023-03-18T07:45:12.432Z,6.75
2023-03-18T07:48:17.501Z,6.73
2023-03-18T07:51:23.413Z,6.86
2023-03-18T07:54:29.409Z,7.08
2023-03-18T07:57:35.669Z,7.13
2023-03-18T08:00:42.955Z,7.30
2023-03-18T08:03:49.934Z,7.57
2023-03-18T08:06:55.641Z,7.79
2023-03-18T08:10:01.899Z,7.90
2023-03-18T08:13:07.720Z,7.80
2023-03-18T08:16:13.738Z,8.03
2023-03-18T08:19:19.120Z,8.08
2023-03-18T08:22:25.820Z,7.93
2023-03-18T08:25:32.036Z,8.20
2023-03-18T08:28:37.530Z,8.54
2023-03-18T08:31:43.577Z,8.62
2023-03-18T08:34:49.309Z,8.62
2023-03-18T08:37:55.709Z,8.72
2023-03-18T08:41:01.915Z,8.68
2023-03-18T08:44:08.823Z,8.91
2023-03-18T08:47:13.992Z,9.07
2023-03-18T08:50:19.817Z,9.21
2023-03-18T08:53:25.552Z,9.37
2023-03-18T08:56:30.898Z,9.20
2023-03-18T08:59:36.877Z,9.37
2023-03-18T09:02:42.897Z,9.56
2023-03-18T09:05:49.684Z,9.39
2023-03-18T09:08:55.005Z,9.50
2023-03-18T09:12:01.373Z,9.68
2023-03-18T09:15:07.590Z,9.77
2023-03-18T09:18:14.057Z,10.05
2023-03-18T09:21:20.450Z,10.02
2023-03-18T09:24:25.563Z,10.02
2023-03-18T09:27:31.143Z,10.02
2023-03-18T09:30:38.523Z,10.06
2023-03-18T09:33:43.914Z,10.24
2023-03-18T09:36:51.726Z,10.07
2023-03-18T09:39:57.244Z,10.17
2023-03-18T09:43:36.965Z,10.51
2023-03-18T09:47:04.539Z,10.63
2023-03-18T09:50:13.007Z,10.68
2023-03-18T09:53:35.844Z,10.75
2023-03-18T09:56:42.416Z,10.96
2023-03-18T10:00:28.034Z,10.93
2023-03-18T10:03:38.821Z,10.92
2023-03-18T10:06:47.658Z,10.88
2023-03-18T10:10:02.233Z,10.88
2023-03-18T10:13:10.628Z,10.88
2023-03-18T10:16:25.740Z,11.10
2023-03-18T10:19:32.601Z,11.16
2023-03-18T10:22:44.381Z,11.17
2023-03-18T10:25:56.176Z,11.36
2023-03-18T10:29:36.246Z,11.46
2023-03-18T10:32:59.253Z,11.53
2023-03-18T10:36:23.755Z,11.33
2023-03-18T10:39:30.067Z,11.53
2023-03-18T10:42:38.465Z,11.53
2023-03-18T10:45:45.605Z,11.57
2023-03-18T10:49:06.665Z,11.64
2023-03-18T10:52:21.946Z,11.71
2023-03-18T10:55:36.650Z,11.79
2023-03-18T10:58:43.964Z,12.03
2023-03-18T11:01:56.275Z,12.10
2023-03-18T11:05:12.744Z,12.05
2023-03-18T11:08:35.076Z,12.06
2023-03-18T11:11:44.033Z,12.27
2023-03-18T11:14:50.637Z,12.16
2023-03-18T11:18:00.833Z,12.43
2023-03-18T11:21:13.226Z,12.30
2023-03-18T11:24:40.026Z,12.43
2023-03-18T11:27:57.548Z,12.39
2023-03-18T11:31:05.950Z,12.47
2023-03-18T11:34:20.030Z,12.72
2023-03-18T11:37:34.717Z,12.91
2023-03-18T11:40:41.409Z,12.92
2023-03-18T11:44:01.944Z,12.92
2023-03-18T11:47:21.413Z,12.97
2023-03-18T11:50:41.079Z,12.81
2023-03-18T11:54:47.418Z,12.96
2023-03-18T11:58:16.315Z,13.10
2023-03-18T12:01:41.751Z,13.27
2023-03-18T12:05:25.000Z,13.37
2023-03-18T12:08:35.909Z,13.29
2023-03-18T12:12:07.357Z,13.36
2023-03-18T12:15:36.877Z,13.33
2023-03-18T12:19:25.668Z,13.24
2023-03-18T12:22:42.844Z,13.28
2023-03-18T12:26:04.511Z,13.50
2023-03-18T12:29:46.793Z,13.53
2023-03-18T12:32:52.329Z,13.69
2023-03-18T12:36:16.600Z,13.75
2023-03-18T12:39:31.356Z,14.00
2023-03-18T12:43:00.641Z,14.01
2023-03-18T12:46:34.544Z,13.95
2023-03-18T12:49:49.697Z,13.66
2023-03-18T12:53:03.723Z,13.98
2023-03-18T12:56:26.281Z,14.03
2023-03-18T12:59:40.808Z,14.10
2023-03-18T13:02:54.951Z,14.32
2023-03-18T13:06:10.497Z,14.43
2023-03-18T13:09:22.115Z,14.30
2023-03-18T13:12:34.033Z,14.29
2023-03-18T13:15:49.921Z,14.29
2023-03-18T13:18:59.839Z,14.34
2023-03-18T13:22:16.718Z,14.44
2023-03-18T13:25:35.053Z,14.52
2023-03-18T13:29:01.415Z,14.55
2023-03-18T13:32:23.327Z,14.85
2023-03-18T13:36:04.620Z,14.72
2023-03-18T13:39:38.946Z,14.31
2023-03-18T13:42:47.058Z,14.46
2023-03-18T13:45:55.807Z,14.49
2023-03-18T13:49:02.921Z,14.73
2023-03-18T13:52:33.840Z,14.59
2023-03-18T13:55:39.938Z,14.89
2023-03-18T13:58:52.967Z,14.83
2023-03-18T14:02:19.676Z,14.76
2023-03-18T14:05:40.751Z,15.08
2023-03-18T14:08:49.715Z,15.06
2023-03-18T14:12:04.347Z,15.02
2023-03-18T14:15:12.858Z,14.91
2023-03-18T14:18:28.900Z,15.01
2023-03-18T14:21:44.052Z,15.14
2023-03-18T14:25:11.275Z,15.09
2023-03-18T14:28:24.542Z,15.04
2023-03-18T14:31:39.497Z,15.15
2023-03-18T14:35:21.749Z,15.15
2023-03-18T14:38:47.129Z,15.16
2023-03-18T14:41:57.522Z,15.30
2023-03-18T14:45:14.658Z,15.37
2023-03-18T14:48:29.602Z,15.21
2023-03-18T14:51:35.900Z,15.38
2023-03-18T14:54:44.538Z,15.21
2023-03-18T14:57:52.006Z,15.36
2023-03-18T15:01:04.864Z,15.46
2023-03-18T15:04:18.997Z,15.49
2023-03-18T15:07:36.342Z,15.45
2023-03-18T15:10:43.116Z,15.37
2023-03-18T15:13:48.987Z,15.40
2023-03-18T15:16:56.957Z,15.17
2023-03-18T15:20:03.065Z,15.03
2023-03-18T15:23:11.887Z,15.16
2023-03-18T15:26:31.280Z,15.20
2023-03-18T15:29:39.212Z,15.17
2023-03-18T15:32:50.033Z,15.12
2023-03-18T15:36:08.008Z,15.14
2023-03-18T15:39:38.174Z,14.91
2023-03-18T15:42:45.498Z,14.87
2023-03-18T15:45:57.799Z,14.76
2023-03-18T15:49:05.705Z,14.64
2023-03-18T15:52:14.998Z,14.70
2023-03-18T15:55:36.160Z,14.74
2023-03-18T15:58:45.110Z,14.64
2023-03-18T16:01:50.420Z,14.59
2023-03-18T16:05:29.280Z,14.52
2023-03-18T16:08:34.567Z,14.52
2023-03-18T16:11:40.241Z,14.36
2023-03-18T16:14:48.175Z,14.45
2023-03-18T16:17:55.419Z,14.39
2023-03-18T16:21:01.080Z,14.28
2023-03-18T16:24:06.598Z,14.40
2023-03-18T16:27:37.814Z,14.18
2023-03-18T16:30:43.019Z,14.16
2023-03-18T16:33:53.137Z,14.09
2023-03-18T16:36:58.434Z,14.28
2023-03-18T16:40:06.718Z,14.13
2023-03-18T16:43:22.197Z,14.04
2023-03-18T16:46:28.408Z,13.81
2023-03-18T16:49:34.795Z,13.75
2023-03-18T16:52:40.217Z,13.63
2023-03-18T16:55:48.329Z,13.52
2023-03-18T16:58:53.916Z,13.48
2023-03-18T17:02:00.611Z,13.30
2023-03-18T17:05:08.713Z,13.25
2023-03-18T17:08:14.591Z,13.23
2023-03-18T17:11:19.791Z,13.10
2023-03-18T17:14:42.601Z,13.04
2023-03-18T17:17:47.981Z,12.92
2023-03-18T17:20:53.224Z,12.89
2023-03-18T17:23:58.834Z,12.79
2023-03-18T17:27:04.663Z,12.72
2023-03-18T17:30:32.768Z,12.68
2023-03-18T17:33:38.098Z,12.57
2023-03-18T17:36:43.424Z,12.57
2023-03-18T17:39:48.723Z,12.45
2023-03-18T17:42:54.565Z,12.32
2023-03-18T17:46:01.991Z,12.32
2023-03-18T17:49:12.860Z,12.21
2023-03-18T17:52:21.342Z,12.17
2023-03-18T17:55:27.733Z,12.07
2023-03-18T17:58:34.518Z,12.05
2023-03-18T18:01:40.166Z,11.95
2023-03-18T18:04:46.218Z,11.86
2023-03-18T18:07:51.670Z,11.84
2023-03-18T18:11:24.503Z,11.76
2023-03-18T18:14:32.626Z,11.70
2023-03-18T18:17:37.982Z,11.66
2023-03-18T18:20:43.462Z,11.60
2023-03-18T18:23:49.344Z,11.64
2023-03-18T18:26:54.916Z,11.63
2023-03-18T18:30:00.360Z,11.50
2023-03-18T18:33:06.367Z,11.38
2023-03-18T18:36:14.597Z,11.31
2023-03-18T18:39:21.412Z,11.19
2023-03-18T18:42:27.061Z,11.05
2023-03-18T18:45:34.437Z,10.85
2023-03-18T18:48:40.003Z,10.94
2023-03-18T18:51:45.654Z,10.75
2023-03-18T18:54:51.371Z,10.74
2023-03-18T18:57:57.415Z,10.61
2023-03-18T19:01:02.909Z,10.61
2023-03-18T19:04:14.767Z,10.50
2023-03-18T19:07:21.760Z,10.53
2023-03-18T19:10:27.896Z,10.38
2023-03-18T19:13:35.208Z,10.33
2023-03-18T19:16:40.822Z,10.37
2023-03-18T19:19:47.294Z,10.20
2023-03-18T19:22:53.332Z,10.18
2023-03-18T19:25:59.864Z,10.10
2023-03-18T19:29:05.032Z,10.08
2023-03-18T19:32:18.541Z,10.02
2023-03-18T19:35:23.949Z,9.87
2023-03-18T19:38:29.679Z,9.75
2023-03-18T19:41:35.276Z,9.71
2023-03-18T19:44:40.533Z,9.60
2023-03-18T19:47:46.672Z,9.63
2023-03-18T19:50:52.622Z,9.62
2023-03-18T19:53:58.400Z,9.68
2023-03-18T19:57:09.916Z,9.61
2023-03-18T20:00:25.846Z,9.61
2023-03-18T20:03:32.026Z,9.47
2023-03-18T20:06:37.396Z,9.48
2023-03-18T20:09:42.845Z,9.41
2023-03-18T20:12:50.849Z,9.47
2023-03-18T20:15:55.949Z,9.39
2023-03-18T20:19:01.721Z,9.29
2023-03-18T20:22:06.856Z,9.18
2023-03-18T20:25:42.727Z,9.28
2023-03-18T20:28:51.870Z,9.27
2023-03-18T20:31:59.914Z,9.20
2023-03-18T20:35:05.479Z,9.23
2023-03-18T20:38:26.932Z,9.20
2023-03-18T20:41:37.524Z,9.16
2023-03-18T20:44:45.007Z,9.18
2023-03-18T20:47:51.023Z,9.17
2023-03-18T20:50:57.603Z,9.19
2023-03-18T20:54:25.607Z,9.06
2023-03-18T20:57:30.999Z,8.92
2023-03-18T21:00:36.630Z,8.95
2023-03-18T21:03:42.722Z,8.95
2023-03-18T21:06:47.809Z,8.96
2023-03-18T21:09:53.979Z,8.96
2023-03-18T21:12:59.452Z,8.91
2023-03-18T21:16:13.722Z,8.95
2023-03-18T21:19:19.401Z,8.83
2023-03-18T21:22:30.625Z,8.99
2023-03-18T21:25:36.497Z,8.97
2023-03-18T21:28:41.980Z,8.88
2023-03-18T21:31:47.645Z,8.76
2023-03-18T21:34:56.070Z,8.68
2023-03-18T21:38:02.129Z,8.69
2023-03-18T21:41:20.206Z,8.75
2023-03-18T21:44:25.810Z,8.82
2023-03-18T21:47:31.355Z,8.72
2023-03-18T21:50:37.473Z,8.59
2023-03-18T21:53:42.901Z,8.72
2023-03-18T21:56:48.431Z,8.75
2023-03-18T21:59:54.340Z,8.79
2023-03-18T22:02:59.638Z,8.68
2023-03-18T22:06:04.967Z,8.58
2023-03-18T22:09:10.473Z,8.58
2023-03-18T22:12:29.761Z,8.58
2023-03-18T22:15:38.541Z,8.59
2023-03-18T22:18:46.119Z,8.56
2023-03-18T22:21:52.675Z,8.53
2023-03-18T22:24:58.364Z,8.48
2023-03-18T22:28:04.145Z,8.61
2023-03-18T22:31:23.482Z,8.63
2023-03-18T22:34:28.728Z,8.49
2023-03-18T22:37:34.037Z,8.49
2023-03-18T22:40:41.765Z,8.41
2023-03-18T22:43:48.050Z,8.62
2023-03-18T22:46:53.482Z,8.69
2023-03-18T22:49:58.874Z,8.65
2023-03-18T22:53:07.957Z,8.75
2023-03-18T22:56:17.755Z,8.79
2023-03-18T22:59:23.233Z,8.72
2023-03-18T23:02:29.902Z,8.60
2023-03-18T23:05:35.579Z,8.59
2023-03-18T23:08:41.019Z,8.57
2023-03-18T23:11:46.548Z,8.52
2023-03-18T23:14:53.204Z,8.60
2023-03-18T23:17:58.636Z,8.49
2023-03-18T23:21:04.179Z,8.47
2023-03-18T23:24:09.934Z,8.40
2023-03-18T23:27:14.898Z,8.38
2023-03-18T23:30:21.003Z,8.32
2023-03-18T23:33:26.782Z,8.42
2023-03-18T23:36:32.890Z,8.43
2023-03-18T23:39:43.692Z,8.42
2023-03-18T23:42:49.632Z,8.23
2023-03-18T23:45:55.379Z,8.31
2023-03-18T23:49:00.958Z,8.26
2023-03-18T23:52:10.081Z,8.24
2023-03-18T23:55:32.994Z,8.23
2023-03-18T23:58:40.202Z,8.14
